createdAt,value
2019-03-12T00:00:49.996Z,23.38
2019-03-12T00:03:16.638Z,23.41
2019-03-12T00:05:43.272Z,23.40
2019-03-12T00:08:09.931Z,23.45
2019-03-12T00:10:36.580Z,23.45
2019-03-12T00:13:03.271Z,23.44
2019-03-12T00:15:29.960Z,23.46
2019-03-12T00:17:56.609Z,23.48
2019-03-12T00:20:23.244Z,23.52
2019-03-12T00:22:49.897Z,23.50
2019-03-12T00:25:16.542Z,23.49
2019-03-12T00:27:43.351Z,23.54
2019-03-12T00:30:09.997Z,23.55
2019-03-12T00:32:36.685Z,23.52
2019-03-12T00:35:03.320Z,23.54
2019-03-12T00:37:30.013Z,23.52
2019-03-12T00:39:56.657Z,23.54
2019-03-12T00:42:23.311Z,23.51
2019-03-12T00:44:49.995Z,23.53
2019-03-12T00:47:16.629Z,23.52
2019-03-12T00:49:43.354Z,23.45
2019-03-12T00:52:09.946Z,23.55
2019-03-12T00:54:36.626Z,23.58
2019-03-12T00:57:03.306Z,23.53
2019-03-12T00:59:29.971Z,23.56
2019-03-12T01:01:56.617Z,23.58
2019-03-12T01:04:23.248Z,23.59
2019-03-12T01:06:49.916Z,23.54
2019-03-12T01:09:16.597Z,23.55
2019-03-12T01:11:43.247Z,23.57
2019-03-12T01:14:09.928Z,23.56
2019-03-12T01:16:36.579Z,23.55
2019-03-12T01:19:03.217Z,23.55
2019-03-12T01:21:29.922Z,23.55
2019-03-12T01:23:56.566Z,23.59
2019-03-12T01:26:23.233Z,23.55
2019-03-12T01:28:49.884Z,23.58
2019-03-12T01:31:16.551Z,23.54
2019-03-12T01:33:43.217Z,23.55
2019-03-12T01:36:09.860Z,23.58
2019-03-12T01:38:36.557Z,23.56
2019-03-12T01:41:03.190Z,23.53
2019-03-12T01:43:29.870Z,23.57
2019-03-12T01:45:56.503Z,23.55
2019-03-12T01:48:23.242Z,23.58
2019-03-12T01:50:49.802Z,23.57
2019-03-12T01:53:16.500Z,23.58
2019-03-12T01:55:43.227Z,23.58
2019-03-12T01:58:09.861Z,23.60
2019-03-12T02:00:36.551Z,23.55
2019-03-12T02:03:03.204Z,23.56
2019-03-12T02:05:29.843Z,23.57
2019-03-12T02:07:56.616Z,23.53
2019-03-12T02:10:23.263Z,23.54
2019-03-12T02:12:49.895Z,23.58
2019-03-12T02:15:16.565Z,23.58
2019-03-12T02:17:43.205Z,23.58
2019-03-12T02:20:09.851Z,23.53
2019-03-12T02:22:36.508Z,23.50
2019-03-12T02:25:03.153Z,23.54
2019-03-12T02:27:29.860Z,23.54
2019-03-12T02:29:56.509Z,23.49
2019-03-12T02:32:23.158Z,23.51
2019-03-12T02:34:49.800Z,23.50
2019-03-12T02:37:16.438Z,23.50
2019-03-12T02:39:43.112Z,23.53
2019-03-12T02:42:12.648Z,23.52
2019-03-12T02:44:36.406Z,23.52
2019-03-12T02:47:03.092Z,23.56
2019-03-12T02:49:29.779Z,23.52
2019-03-12T02:51:56.421Z,23.49
2019-03-12T02:54:23.064Z,23.54
2019-03-12T02:56:49.764Z,23.51
2019-03-12T02:59:16.370Z,23.47
2019-03-12T03:01:43.056Z,23.52
2019-03-12T03:04:09.790Z,23.49
2019-03-12T03:06:36.460Z,23.50
2019-03-12T03:09:03.074Z,23.50
2019-03-12T03:11:29.762Z,23.47
2019-03-12T03:13:56.409Z,23.49
2019-03-12T03:16:24.432Z,23.48
2019-03-12T03:18:49.689Z,23.47
2019-03-12T03:21:16.334Z,23.47
2019-03-12T03:23:43.045Z,23.48
2019-03-12T03:26:09.678Z,23.47
2019-03-12T03:28:36.337Z,23.48
2019-03-12T03:31:02.981Z,23.47
2019-03-12T03:33:29.636Z,23.44
2019-03-12T03:35:56.492Z,23.41
2019-03-12T03:38:23.030Z,23.41
2019-03-12T03:40:49.673Z,23.44
2019-03-12T03:43:16.323Z,23.45
2019-03-12T03:45:42.970Z,23.42
2019-03-12T03:48:09.616Z,23.43
2019-03-12T03:50:36.565Z,23.44
2019-03-12T03:53:03.121Z,23.44
2019-03-12T03:55:29.777Z,23.45
2019-03-12T03:57:56.445Z,23.42
2019-03-12T04:00:23.092Z,23.41
2019-03-12T04:02:49.821Z,23.44
2019-03-12T04:05:16.594Z,23.44
2019-03-12T04:07:43.203Z,23.44
2019-03-12T04:10:09.866Z,23.33
2019-03-12T04:12:36.519Z,22.73
2019-03-12T04:15:03.168Z,22.45
2019-03-12T04:17:29.806Z,22.25
2019-03-12T04:19:56.462Z,22.35
2019-03-12T04:22:23.097Z,22.15
2019-03-12T04:24:49.794Z,21.92
2019-03-12T04:27:16.429Z,22.01
2019-03-12T04:29:43.085Z,22.00
2019-03-12T04:32:09.764Z,22.11
2019-03-12T04:34:36.447Z,22.40
2019-03-12T04:37:03.138Z,22.69
2019-03-12T04:39:29.786Z,22.81
2019-03-12T04:41:56.439Z,22.94
2019-03-12T04:44:23.127Z,23.15
2019-03-12T04:46:49.771Z,23.12
2019-03-12T04:49:16.457Z,23.08
2019-03-12T04:51:43.096Z,23.16
2019-03-12T04:54:09.761Z,23.16
2019-03-12T04:56:36.399Z,23.14
2019-03-12T04:59:03.084Z,23.11
2019-03-12T05:01:29.724Z,23.14
2019-03-12T05:03:56.364Z,23.19
2019-03-12T05:06:23.014Z,23.16
2019-03-12T05:08:49.661Z,23.19
2019-03-12T05:11:16.315Z,23.18
2019-03-12T05:13:42.963Z,23.23
2019-03-12T05:16:09.600Z,23.26
2019-03-12T05:18:36.292Z,23.34
2019-03-12T05:21:02.978Z,23.35
2019-03-12T05:23:29.616Z,23.26
2019-03-12T05:25:56.305Z,23.18
2019-03-12T05:28:22.966Z,23.20
2019-03-12T05:30:49.623Z,23.29
2019-03-12T05:33:16.317Z,23.21
2019-03-12T05:35:42.956Z,23.22
2019-03-12T05:38:09.604Z,23.20
2019-03-12T05:40:36.454Z,23.30
2019-03-12T05:43:03.097Z,23.28
2019-03-12T05:45:29.741Z,23.39
2019-03-12T05:47:56.419Z,23.30
2019-03-12T05:50:23.056Z,23.36
2019-03-12T05:52:49.796Z,23.39
2019-03-12T05:55:16.382Z,23.38
2019-03-12T05:57:43.052Z,23.35
2019-03-12T06:00:09.698Z,23.42
2019-03-12T06:02:36.351Z,23.38
2019-03-12T06:05:02.990Z,23.39
2019-03-12T06:07:29.722Z,23.42
2019-03-12T06:09:56.371Z,23.45
2019-03-12T06:12:23.030Z,23.40
2019-03-12T06:14:49.681Z,23.43
2019-03-12T06:17:16.388Z,23.43
2019-03-12T06:19:43.034Z,23.44
2019-03-12T06:22:11.660Z,23.45
2019-03-12T06:24:36.367Z,23.45
2019-03-12T06:27:03.075Z,23.45
2019-03-12T06:29:29.717Z,23.48
2019-03-12T06:31:56.374Z,23.51
2019-03-12T06:34:25.094Z,23.50
2019-03-12T06:36:49.675Z,23.51
2019-03-12T06:39:16.374Z,23.52
2019-03-12T06:41:43.010Z,23.53
2019-03-12T06:44:09.704Z,23.52
2019-03-12T06:46:36.400Z,23.56
2019-03-12T06:49:03.058Z,23.68
2019-03-12T06:51:29.797Z,23.61
2019-03-12T06:53:56.433Z,23.63
2019-03-12T06:56:23.536Z,23.77
2019-03-12T06:58:50.209Z,23.99
2019-03-12T07:01:17.023Z,23.82
2019-03-12T07:03:43.716Z,23.68
2019-03-12T07:06:10.365Z,23.65
2019-03-12T07:08:37.130Z,23.62
2019-03-12T07:11:03.880Z,23.67
2019-03-12T07:13:30.575Z,23.64
2019-03-12T07:15:57.226Z,23.64
2019-03-12T07:18:23.866Z,23.70
2019-03-12T07:20:50.639Z,23.68
2019-03-12T07:23:17.279Z,23.83
2019-03-12T07:34:20.152Z,23.87
2019-03-12T07:36:46.811Z,23.84
2019-03-12T07:39:13.462Z,23.81
2019-03-12T07:41:40.153Z,23.73
2019-03-12T07:44:06.824Z,23.49
2019-03-12T07:46:33.509Z,23.42
2019-03-12T07:49:00.184Z,23.43
2019-03-12T07:51:26.846Z,23.48
2019-03-12T07:53:59.424Z,23.52
2019-03-12T07:56:20.154Z,23.55
2019-03-12T07:58:46.804Z,23.63
2019-03-12T08:01:13.506Z,23.71
2019-03-12T08:03:40.240Z,23.70
2019-03-12T08:06:06.905Z,24.11
2019-03-12T08:08:33.595Z,24.07
2019-03-12T08:11:00.245Z,24.02
2019-03-12T08:13:27.144Z,24.10
2019-03-12T08:15:53.985Z,24.10
2019-03-12T08:18:20.633Z,24.09
2019-03-12T08:20:47.302Z,24.18
2019-03-12T08:23:14.010Z,24.08
2019-03-12T08:25:43.707Z,24.24
2019-03-12T08:28:07.432Z,24.25
2019-03-12T08:30:35.962Z,24.28
2019-03-12T08:33:02.656Z,24.33
2019-03-12T08:35:29.352Z,24.32
2019-03-12T08:37:56.079Z,24.27
2019-03-12T08:40:22.921Z,24.42
2019-03-12T08:42:54.690Z,24.44
2019-03-12T08:45:17.591Z,24.59
2019-03-12T08:47:44.281Z,24.51
2019-03-12T08:50:10.968Z,24.57
2019-03-12T08:52:37.643Z,24.57
2019-03-12T08:55:04.501Z,24.65
2019-03-12T08:57:31.117Z,24.65
2019-03-12T08:59:57.958Z,24.61
2019-03-12T09:02:24.636Z,24.56
2019-03-12T09:04:51.313Z,24.48
2019-03-12T09:07:22.602Z,24.45
2019-03-12T09:09:49.436Z,24.48
2019-03-12T09:12:16.070Z,24.46
2019-03-12T09:14:42.791Z,24.42
2019-03-12T09:17:09.438Z,24.48
2019-03-12T09:19:36.146Z,24.38
2019-03-12T09:22:02.799Z,24.48
2019-03-12T09:24:29.458Z,24.67
2019-03-12T09:26:56.104Z,24.56
2019-03-12T09:29:22.798Z,24.52
2019-03-12T09:31:49.565Z,24.72
2019-03-12T09:34:16.207Z,24.61
2019-03-12T09:36:42.873Z,24.53
2019-03-12T09:39:09.519Z,24.41
2019-03-12T09:41:36.306Z,24.37
2019-03-12T09:44:02.965Z,24.41
2019-03-12T09:46:29.698Z,24.30
2019-03-12T09:48:56.342Z,24.26
2019-03-12T09:51:23.009Z,24.24
2019-03-12T09:53:49.651Z,24.23
2019-03-12T09:56:16.303Z,24.26
2019-03-12T09:58:42.995Z,24.25
2019-03-12T10:01:09.646Z,24.32
2019-03-12T10:03:36.342Z,24.23
2019-03-12T10:06:03.020Z,24.28
2019-03-12T10:08:29.716Z,24.17
2019-03-12T10:10:56.368Z,24.26
2019-03-12T10:13:23.033Z,24.25
2019-03-12T10:15:49.713Z,24.32
2019-03-12T10:18:16.412Z,24.24
2019-03-12T10:20:43.229Z,24.22
2019-03-12T10:23:09.978Z,24.25
2019-03-12T10:25:36.633Z,24.36
2019-03-12T10:28:03.321Z,24.42
2019-03-12T10:30:29.974Z,24.62
2019-03-12T10:32:56.651Z,24.36
2019-03-12T10:35:23.345Z,24.22
2019-03-12T10:37:50.063Z,24.14
2019-03-12T10:40:16.788Z,24.15
2019-03-12T10:42:43.517Z,24.23
2019-03-12T10:45:10.156Z,24.20
2019-03-12T10:47:36.807Z,24.26
2019-03-12T10:50:03.537Z,24.22
2019-03-12T10:52:30.172Z,24.18
2019-03-12T10:54:56.973Z,24.28
2019-03-12T10:57:23.632Z,24.18
2019-03-12T10:59:50.289Z,24.23
2019-03-12T11:02:16.961Z,24.33
2019-03-12T11:04:43.624Z,24.37
2019-03-12T11:07:16.423Z,24.53
2019-03-12T11:09:36.921Z,24.40
2019-03-12T11:12:03.756Z,24.33
2019-03-12T11:14:30.416Z,24.32
2019-03-12T11:16:57.125Z,24.45
2019-03-12T11:19:23.755Z,24.37
2019-03-12T11:21:50.467Z,24.42
2019-03-12T11:24:17.235Z,24.39
2019-03-12T11:26:43.964Z,24.45
2019-03-12T11:29:10.616Z,24.43
2019-03-12T11:31:37.368Z,24.49
2019-03-12T11:34:03.958Z,24.49
2019-03-12T11:36:30.640Z,24.58
2019-03-12T11:38:57.352Z,24.57
2019-03-12T11:41:24.007Z,24.59
2019-03-12T11:43:50.702Z,24.79
2019-03-12T11:46:17.393Z,24.62
2019-03-12T11:48:45.077Z,24.67
2019-03-12T11:51:11.805Z,24.57
2019-03-12T11:53:38.499Z,24.59
2019-03-12T11:56:05.276Z,24.69
2019-03-12T11:58:31.978Z,24.75
2019-03-12T12:00:58.785Z,24.74
2019-03-12T12:03:25.437Z,24.72
2019-03-12T12:05:52.131Z,24.73
2019-03-12T12:08:18.878Z,24.58
2019-03-12T12:10:45.616Z,24.55
2019-03-12T12:13:12.374Z,24.59
2019-03-12T12:15:39.033Z,24.72
2019-03-12T12:18:05.695Z,24.56
2019-03-12T12:20:32.455Z,24.49
2019-03-12T12:22:59.153Z,24.46
2019-03-12T12:25:25.866Z,24.47
2019-03-12T12:27:52.559Z,24.66
2019-03-12T12:30:19.211Z,24.72
2019-03-12T12:32:45.963Z,24.58
2019-03-12T12:35:12.614Z,24.48
2019-03-12T12:37:39.263Z,24.53
2019-03-12T12:40:07.102Z,24.65
2019-03-12T12:42:36.061Z,24.58
2019-03-12T12:45:00.451Z,24.58
2019-03-12T12:47:27.091Z,24.62
2019-03-12T12:49:53.952Z,24.56
2019-03-12T12:52:20.557Z,24.66
2019-03-12T12:54:47.291Z,24.65
2019-03-12T12:57:13.953Z,24.61
2019-03-12T12:59:40.658Z,24.60
2019-03-12T13:02:07.301Z,24.44
2019-03-12T13:04:33.964Z,24.61
2019-03-12T13:07:03.274Z,24.48
2019-03-12T13:09:29.973Z,24.51
2019-03-12T13:11:56.687Z,24.42
2019-03-12T13:14:23.410Z,24.47
2019-03-12T13:16:50.136Z,24.46
2019-03-12T13:19:16.813Z,24.43
2019-03-12T13:21:46.339Z,24.39
2019-03-12T13:24:12.997Z,24.43
2019-03-12T13:26:39.684Z,24.39
2019-03-12T13:29:06.350Z,24.40
2019-03-12T13:31:33.038Z,24.37
2019-03-12T13:33:59.727Z,24.36
2019-03-12T13:36:26.382Z,24.43
2019-03-12T13:38:53.043Z,24.56
2019-03-12T13:41:19.791Z,24.49
2019-03-12T13:43:46.569Z,24.43
2019-03-12T13:46:13.189Z,24.44
2019-03-12T13:48:39.927Z,24.50
2019-03-12T13:51:09.237Z,24.27
2019-03-12T13:53:35.984Z,24.42
2019-03-12T13:56:02.700Z,24.46
2019-03-12T13:58:29.346Z,24.53
2019-03-12T14:00:58.565Z,24.63
2019-03-12T14:03:25.219Z,24.64
2019-03-12T14:05:51.910Z,24.57
2019-03-12T14:08:18.761Z,24.60
2019-03-12T14:10:45.486Z,24.51
2019-03-12T14:13:12.196Z,24.42
2019-03-12T14:15:38.912Z,24.47
2019-03-12T14:18:05.581Z,24.62
2019-03-12T14:20:32.242Z,24.46
2019-03-12T14:22:58.890Z,24.55
2019-03-12T14:25:25.575Z,24.65
2019-03-12T14:27:52.259Z,24.49
2019-03-12T14:30:18.914Z,24.43
2019-03-12T14:32:45.653Z,24.51
2019-03-12T14:35:12.372Z,24.47
2019-03-12T14:37:39.032Z,24.64
2019-03-12T14:40:05.727Z,24.57
2019-03-12T14:42:32.462Z,24.68
2019-03-12T14:44:59.122Z,24.63
2019-03-12T14:47:25.771Z,24.55
2019-03-12T14:49:52.415Z,24.72
2019-03-12T14:52:19.151Z,24.71
2019-03-12T14:54:45.832Z,24.42
2019-03-12T14:57:12.595Z,24.42
2019-03-12T14:59:39.287Z,24.39
2019-03-12T15:02:05.972Z,24.37
2019-03-12T15:04:32.704Z,24.44
2019-03-12T15:06:59.391Z,24.36
2019-03-12T15:09:26.056Z,24.42
2019-03-12T15:11:52.737Z,24.35
2019-03-12T15:14:19.502Z,24.28
2019-03-12T15:16:46.174Z,24.32
2019-03-12T15:19:12.835Z,24.31
2019-03-12T15:21:39.508Z,24.17
2019-03-12T15:24:06.162Z,24.21
2019-03-12T15:26:32.867Z,24.27
2019-03-12T15:28:59.522Z,24.28
2019-03-12T15:31:27.399Z,24.34
2019-03-12T15:33:54.072Z,24.26
2019-03-12T15:36:20.732Z,24.20
2019-03-12T15:38:47.423Z,24.17
2019-03-12T15:41:14.080Z,24.19
2019-03-12T15:43:40.784Z,24.10
2019-03-12T15:46:07.453Z,23.90
2019-03-12T15:48:34.090Z,23.68
2019-03-12T15:51:00.829Z,23.59
2019-03-12T15:53:27.414Z,23.62
2019-03-12T15:55:55.863Z,23.71
2019-03-12T15:58:20.761Z,23.82
2019-03-12T16:00:47.449Z,23.78
2019-03-12T16:03:14.088Z,23.93
2019-03-12T16:05:40.746Z,23.94
2019-03-12T16:08:07.394Z,23.98
2019-03-12T16:10:34.053Z,24.00
2019-03-12T16:13:00.842Z,24.05
2019-03-12T16:15:27.483Z,24.07
2019-03-12T16:17:54.134Z,24.04
2019-03-12T16:20:20.775Z,24.23
2019-03-12T16:22:47.518Z,24.10
2019-03-12T16:25:14.173Z,24.11
2019-03-12T16:27:40.846Z,24.08
2019-03-12T16:30:07.480Z,24.07
2019-03-12T16:32:35.364Z,24.07
2019-03-12T16:35:00.774Z,24.09
2019-03-12T16:37:27.425Z,24.07
2019-03-12T16:39:54.066Z,24.12
2019-03-12T16:42:20.713Z,24.11
2019-03-12T16:44:47.376Z,24.10
2019-03-12T16:47:14.012Z,24.09
2019-03-12T16:49:40.705Z,24.09
2019-03-12T16:52:07.385Z,24.09
2019-03-12T16:54:34.020Z,24.12
2019-03-12T16:57:00.689Z,24.12
2019-03-12T16:59:27.342Z,24.15
2019-03-12T17:01:53.986Z,24.11
2019-03-12T17:04:20.661Z,24.16
2019-03-12T17:06:47.303Z,24.08
2019-03-12T17:09:13.990Z,24.06
2019-03-12T17:11:40.631Z,23.99
2019-03-12T17:14:07.419Z,23.99
2019-03-12T17:16:33.981Z,23.98
2019-03-12T17:19:00.637Z,23.93
2019-03-12T17:21:27.315Z,23.94
2019-03-12T17:23:55.300Z,23.96
2019-03-12T17:26:20.639Z,23.93
2019-03-12T17:28:47.308Z,23.92
2019-03-12T17:31:13.954Z,23.85
2019-03-12T17:33:40.632Z,23.82
2019-03-12T17:36:07.273Z,23.78
2019-03-12T17:38:46.058Z,23.80
2019-03-12T17:41:00.628Z,23.75
2019-03-12T17:43:27.251Z,23.74
2019-03-12T17:45:53.939Z,23.73
2019-03-12T17:48:20.582Z,23.73
2019-03-12T17:50:47.270Z,23.67
2019-03-12T17:53:14.017Z,23.72
2019-03-12T17:55:40.719Z,23.68
2019-03-12T17:58:07.447Z,23.66
2019-03-12T18:00:34.110Z,23.63
2019-03-12T18:03:00.817Z,23.61
2019-03-12T18:05:27.406Z,23.64
2019-03-12T18:07:54.134Z,23.60
2019-03-12T18:10:20.781Z,23.56
2019-03-12T18:12:47.589Z,23.54
2019-03-12T18:15:14.144Z,23.54
2019-03-12T18:17:40.796Z,23.51
2019-03-12T18:20:07.441Z,23.59
2019-03-12T18:22:34.214Z,23.53
2019-03-12T18:25:00.820Z,23.52
2019-03-12T18:27:27.457Z,23.45
2019-03-12T18:29:54.153Z,23.52
2019-03-12T18:32:20.829Z,23.47
2019-03-12T18:34:47.476Z,23.51
2019-03-12T18:37:14.266Z,23.44
2019-03-12T18:39:40.907Z,23.46
2019-03-12T18:42:07.541Z,23.42
2019-03-12T18:44:34.192Z,23.41
2019-03-12T18:47:00.838Z,23.39
2019-03-12T18:49:27.487Z,23.39
2019-03-12T18:51:54.126Z,23.35
2019-03-12T18:54:20.778Z,23.38
2019-03-12T18:56:47.422Z,23.36
2019-03-12T18:59:14.083Z,23.35
2019-03-12T19:01:40.756Z,23.33
2019-03-12T19:04:07.411Z,23.38
2019-03-12T19:06:34.088Z,23.40
2019-03-12T19:09:00.723Z,23.39
2019-03-12T19:11:27.367Z,23.44
2019-03-12T19:13:54.004Z,23.43
2019-03-12T19:16:20.687Z,23.43
2019-03-12T19:18:47.335Z,23.44
2019-03-12T19:21:14.015Z,23.44
2019-03-12T19:23:40.655Z,23.43
2019-03-12T19:26:07.301Z,23.44
2019-03-12T19:28:34.041Z,23.45
2019-03-12T19:31:00.740Z,23.44
2019-03-12T19:33:27.383Z,23.45
2019-03-12T19:35:54.032Z,23.44
2019-03-12T19:38:20.676Z,23.40
2019-03-12T19:40:47.370Z,23.42
2019-03-12T19:43:14.067Z,23.44
2019-03-12T19:45:40.707Z,23.46
2019-03-12T19:48:07.459Z,23.46
2019-03-12T19:50:34.116Z,23.44
2019-03-12T19:53:00.791Z,23.45
2019-03-12T19:55:27.442Z,23.44
2019-03-12T19:57:54.153Z,23.43
2019-03-12T20:00:20.777Z,23.46
2019-03-12T20:02:47.421Z,23.40
2019-03-12T20:05:14.073Z,23.44
2019-03-12T20:07:40.713Z,23.46
2019-03-12T20:10:07.356Z,23.40
2019-03-12T20:12:34.009Z,23.44
2019-03-12T20:15:00.712Z,23.44
2019-03-12T20:17:27.337Z,23.43
2019-03-12T20:19:54.222Z,23.43
2019-03-12T20:22:20.682Z,23.38
2019-03-12T20:24:47.330Z,23.40
2019-03-12T20:27:13.981Z,23.43
2019-03-12T20:29:40.626Z,23.41
2019-03-12T20:32:07.273Z,23.41
2019-03-12T20:34:33.922Z,23.40
2019-03-12T20:37:00.721Z,23.41
2019-03-12T20:39:27.374Z,23.38
2019-03-12T20:41:54.013Z,23.41
2019-03-12T20:44:20.671Z,23.39
2019-03-12T20:46:47.322Z,23.39
2019-03-12T20:49:13.963Z,23.41
2019-03-12T20:51:40.640Z,23.41
2019-03-12T20:54:07.364Z,23.38
2019-03-12T20:56:33.929Z,23.40
2019-03-12T20:59:00.606Z,23.40
2019-03-12T21:01:27.981Z,23.39
2019-03-12T21:03:53.917Z,23.36
2019-03-12T21:06:20.557Z,23.39
2019-03-12T21:08:50.183Z,23.37
2019-03-12T21:11:16.824Z,23.38
2019-03-12T21:13:43.509Z,23.38
2019-03-12T21:16:10.155Z,23.35
2019-03-12T21:18:36.891Z,23.33
2019-03-12T21:21:03.522Z,23.33
2019-03-12T21:23:30.184Z,23.31
2019-03-12T21:25:56.863Z,23.33
2019-03-12T21:28:23.501Z,23.32
2019-03-12T21:30:50.143Z,23.32
2019-03-12T21:33:16.790Z,23.28
2019-03-12T21:35:43.431Z,23.30
2019-03-12T21:38:10.109Z,23.27
2019-03-12T21:40:36.772Z,23.29
2019-03-12T21:43:03.417Z,23.26
2019-03-12T21:45:30.047Z,23.26
2019-03-12T21:47:56.795Z,23.24
2019-03-12T21:50:24.368Z,23.25
2019-03-12T21:52:50.230Z,23.28
2019-03-12T21:55:16.910Z,23.27
2019-03-12T21:57:43.548Z,23.29
2019-03-12T22:00:10.220Z,23.22
2019-03-12T22:02:36.866Z,23.25
2019-03-12T22:05:03.497Z,23.19
2019-03-12T22:07:30.149Z,23.24
2019-03-12T22:09:56.839Z,23.21
2019-03-12T22:12:23.480Z,23.23
2019-03-12T22:14:50.156Z,23.20
2019-03-12T22:17:16.835Z,23.19
2019-03-12T22:19:46.373Z,23.18
2019-03-12T22:22:13.060Z,23.18
2019-03-12T22:24:39.702Z,23.17
2019-03-12T22:27:06.351Z,23.14
2019-03-12T22:29:32.983Z,23.15
2019-03-12T22:31:59.736Z,23.15
2019-03-12T22:34:26.379Z,23.15
2019-03-12T22:36:53.012Z,23.15
2019-03-12T22:39:19.667Z,23.15
2019-03-12T22:41:46.303Z,23.15
2019-03-12T22:44:12.988Z,23.14
2019-03-12T22:46:39.684Z,23.14
2019-03-12T22:49:06.270Z,23.15
2019-03-12T22:51:32.921Z,23.11
2019-03-12T22:53:59.556Z,23.09
2019-03-12T22:56:26.248Z,23.10
2019-03-12T22:58:52.889Z,23.10
2019-03-12T23:01:19.559Z,23.12
2019-03-12T23:03:46.211Z,23.13
2019-03-12T23:06:12.978Z,23.06
2019-03-12T23:08:39.535Z,23.05
2019-03-12T23:11:06.228Z,23.04
2019-03-12T23:13:32.873Z,23.05
2019-03-12T23:15:59.509Z,23.06
2019-03-12T23:18:26.195Z,23.04
2019-03-12T23:20:52.844Z,23.05
2019-03-12T23:23:19.532Z,23.03
2019-03-12T23:25:46.162Z,23.03
2019-03-12T23:28:12.801Z,23.01
2019-03-12T23:30:39.482Z,23.00
2019-03-12T23:33:06.115Z,23.00
2019-03-12T23:35:32.769Z,22.99
2019-03-12T23:37:59.406Z,22.99
2019-03-12T23:40:26.084Z,22.97
2019-03-12T23:42:52.724Z,22.99
2019-03-12T23:45:19.405Z,22.97
2019-03-12T23:47:46.040Z,22.79
2019-03-12T23:50:12.821Z,22.62
2019-03-12T23:52:42.024Z,22.45
2019-03-12T23:55:08.674Z,22.38
2019-03-12T23:57:35.346Z,22.40
